Time;durP1;ratioP1;P1;durP2;ratioP2;P2;SDS_P1;SDS_P2;PMS_P1;PMS_P2;Temp;Humidity;BMP_temperature;BMP_pressure;BME280_temperature;BME280_humidity;BME280_pressure;Samples;Min_cycle;Max_cycle;Signal;HPM_P1;HPM_P2
2021/03/11 00:00:27;;;;;;;0.50;0.50;;;;;;;1.89;86.78;98671.16;5095515;28;20077;-91
2021/03/11 00:02:53;;;;;;;0.43;0.43;;;;;;;2.11;86.89;98711.00;5096106;28;20032;-92
2021/03/11 00:05:20;;;;;;;0.50;0.50;;;;;;;2.20;86.81;98732.50;5095256;28;20484;-92
2021/03/11 00:07:45;;;;;;;1.00;1.00;;;;;;;2.22;86.88;98730.97;5095369;28;20093;-90
2021/03/11 00:10:12;;;;;;;1.00;1.00;;;;;;;2.18;85.53;98727.41;5095394;28;20035;-91
2021/03/11 00:12:42;;;;;;;1.38;1.02;;;;;;;2.19;84.96;98722.75;5095782;28;20023;-91
2021/03/11 00:15:10;;;;;;;0.30;0.30;;;;;;;2.17;85.77;98704.03;5096335;28;20032;-89
2021/03/11 00:17:36;;;;;;;;;;;;;;;2.21;85.28;98720.44;5095588;28;20110;-91
2021/03/11 00:20:05;;;;;;;0.30;0.30;;;;;;;1.86;86.27;98667.28;5095160;28;19950;-90
2021/03/11 00:22:31;;;;;;;0.40;0.40;;;;;;;2.24;85.55;98730.56;5094992;28;20472;-91
2021/03/11 00:24:56;;;;;;;0.57;0.57;;;;;;;2.21;85.70;98723.94;5094992;28;20024;-91
2021/03/11 00:27:21;;;;;;;2.25;1.05;;;;;;;2.16;84.95;98712.63;5095054;28;20160;-91
2021/03/11 00:29:47;;;;;;;2.40;0.95;;;;;;;2.09;82.89;98699.72;5094959;28;20024;-93
2021/03/11 00:32:12;;;;;;;0.32;0.32;;;;;;;2.21;83.61;98706.81;5094904;28;20035;-90
2021/03/11 00:34:38;;;;;;;0.32;0.32;;;;;;;2.17;83.91;98697.84;5095494;28;20020;-92
2021/03/11 00:37:03;;;;;;;0.55;0.55;;;;;;;2.20;83.16;98702.50;5095140;28;20035;-92
2021/03/11 00:39:29;;;;;;;1.48;1.38;;;;;;;2.20;83.63;98699.78;5094791;28;20024;-91
2021/03/11 00:41:54;;;;;;;2.28;1.30;;;;;;;2.21;83.12;98699.41;5094759;28;20023;-92
2021/03/11 00:44:19;;;;;;;2.03;1.85;;;;;;;2.25;83.51;98699.41;5094516;28;20502;-92
2021/03/11 00:46:45;;;;;;;0.30;0.30;;;;;;;2.11;81.57;98680.28;5094684;28;20024;-92
2021/03/11 00:49:10;;;;;;;0.30;0.30;;;;;;;2.21;82.13;98696.69;5095516;28;20032;-90
2021/03/11 00:51:36;;;;;;;0.73;0.73;;;;;;;2.09;81.22;98669.75;5094718;28;20035;-89
2021/03/11 00:54:01;;;;;;;0.32;0.32;;;;;;;2.19;82.45;98712.63;5094656;28;20073;-93
2021/03/11 00:56:27;;;;;;;0.30;0.30;;;;;;;2.05;81.63;98677.88;5094484;28;20403;-91
2021/03/11 00:58:52;;;;;;;0.68;0.68;;;;;;;2.19;82.09;98690.03;5094436;28;20039;-91
2021/03/11 01:01:18;;;;;;;0.30;0.30;;;;;;;1.96;81.02;98671.22;5094415;28;20028;-92
2021/03/11 01:03:43;;;;;;;0.32;0.32;;;;;;;2.15;81.42;98695.47;5093909;28;20491;-92
2021/03/11 01:06:08;;;;;;;0.30;0.30;;;;;;;2.13;81.87;98694.28;5094554;28;20553;-93
2021/03/11 01:08:34;;;;;;;0.30;0.30;;;;;;;2.07;82.07;98693.06;5094305;28;20032;-92
2021/03/11 01:10:59;;;;;;;0.30;0.30;;;;;;;1.99;82.54;98686.78;5094151;28;20028;-91
2021/03/11 01:13:26;;;;;;;0.30;0.30;;;;;;;1.88;82.25;98666.88;5094104;28;20491;-91
2021/03/11 01:15:52;;;;;;;0.68;0.68;;;;;;;2.06;81.19;98697.75;5094568;28;20467;-92
2021/03/11 01:18:17;;;;;;;0.30;0.30;;;;;;;2.07;81.88;98693.88;5094054;28;20036;-93
2021/03/11 01:20:43;;;;;;;0.30;0.30;;;;;;;2.08;82.09;98705.53;5093904;28;20035;-91
2021/03/11 01:23:09;;;;;;;0.20;0.20;;;;;;;2.02;82.03;98696.94;5093915;28;20032;-91
2021/03/11 01:25:34;;;;;;;0.73;0.73;;;;;;;2.09;82.13;98701.66;5093846;28;20020;-90
2021/03/11 01:28:00;;;;;;;0.32;0.32;;;;;;;2.04;82.02;98692.69;5094019;28;20032;-90
2021/03/11 01:30:25;;;;;;;0.30;0.30;;;;;;;2.09;82.02;98696.22;5093761;28;20471;-92
2021/03/11 01:32:51;;;;;;;1.70;1.60;;;;;;;2.05;80.91;98699.69;5093720;28;20032;-91
2021/03/11 01:35:16;;;;;;;0.82;0.82;;;;;;;2.08;81.10;98711.00;5094078;28;20039;-90
2021/03/11 01:37:42;;;;;;;0.30;0.30;;;;;;;1.90;80.61;98698.03;5093751;28;20051;-91
2021/03/11 01:40:08;;;;;;;0.40;0.40;;;;;;;2.10;79.99;98704.03;5093877;28;20047;-90
2021/03/11 01:42:35;;;;;;;0.40;0.40;;;;;;;2.02;80.14;98694.22;5093674;28;20453;-89
2021/03/11 01:45:02;;;;;;;0.30;0.30;;;;;;;1.97;80.53;98683.69;5093470;28;20024;-91
2021/03/11 01:47:27;;;;;;;0.30;0.30;;;;;;;2.08;80.96;98702.81;5093393;28;20100;-91
2021/03/11 01:49:53;;;;;;;0.30;0.30;;;;;;;2.10;80.70;98706.75;5093463;28;20400;-91
2021/03/11 01:52:19;;;;;;;0.30;0.30;;;;;;;2.14;81.31;98721.16;5093433;28;20031;-91
2021/03/11 01:54:45;;;;;;;0.30;0.30;;;;;;;1.96;81.18;98701.19;5093155;28;20487;-90
2021/03/11 01:57:11;;;;;;;0.30;0.30;;;;;;;2.04;81.98;98694.63;5093189;28;20089;-89
2021/03/11 01:59:37;;;;;;;0.30;0.30;;;;;;;2.12;81.17;98712.56;5093713;28;20028;-90
2021/03/11 02:02:03;;;;;;;0.20;0.20;;;;;;;2.07;81.63;98703.97;5093192;28;20099;-90
2021/03/11 02:04:29;;;;;;;0.65;0.65;;;;;;;2.04;80.59;98709.03;5092666;28;20075;-89
2021/03/11 02:06:54;;;;;;;0.30;0.30;;;;;;;2.06;80.32;98708.63;5093253;28;20097;-91
2021/03/11 02:09:20;;;;;;;0.30;0.30;;;;;;;2.03;80.72;98704.75;5092985;28;20024;-91
2021/03/11 02:12:03;;;;;;;0.30;0.30;;;;;;;2.04;81.15;98705.53;5094074;28;20032;-90
2021/03/11 02:14:54;;;;;;;0.30;0.30;;;;;;;2.04;80.56;98717.22;5093009;28;20133;-91
2021/03/11 02:17:24;;;;;;;0.30;0.30;;;;;;;1.91;79.37;98705.06;5094068;28;20038;-91
2021/03/11 02:20:21;;;;;;;0.30;0.30;;;;;;;1.93;79.58;98704.69;5093195;28;20036;-92
2021/03/11 02:23:05;;;;;;;0.93;0.93;;;;;;;2.07;79.50;98732.00;5093549;28;20056;-91
2021/03/11 02:25:48;;;;;;;0.30;0.30;;;;;;;2.04;78.58;98727.34;5093348;28;20021;-93
2021/03/11 02:28:35;;;;;;;0.30;0.30;;;;;;;2.05;77.58;98726.94;5092786;28;20032;-91
2021/03/11 02:31:01;;;;;;;0.20;0.20;;;;;;;2.01;77.42;98717.97;5093328;28;20031;-90
2021/03/11 02:33:28;;;;;;;0.30;0.30;;;;;;;2.07;77.27;98742.13;5092707;28;20043;-90
2021/03/11 02:35:55;;;;;;;1.17;1.13;;;;;;;1.81;76.49;98691.38;5092453;28;20024;-92
2021/03/11 02:38:22;;;;;;;0.30;0.30;;;;;;;2.17;75.88;98744.91;5092614;28;20126;-91
2021/03/11 02:40:50;;;;;;;0.20;0.20;;;;;;;1.93;76.46;98710.13;5092641;28;20028;-89
2021/03/11 02:43:16;;;;;;;;;;;;;;;2.18;76.08;98742.97;5092886;28;20373;-89
2021/03/11 02:45:42;;;;;;;0.30;0.30;;;;;;;2.07;75.79;98747.56;5093513;28;19959;-90
2021/03/11 02:48:10;;;;;;;0.30;0.30;;;;;;;2.11;76.24;98762.03;5092996;28;20458;-91
2021/03/11 02:50:37;;;;;;;0.30;0.30;;;;;;;2.10;76.52;98747.63;5093542;28;20028;-90
2021/03/11 02:53:06;;;;;;;0.30;0.30;;;;;;;1.80;75.79;98695.25;5093438;28;20032;-92
2021/03/11 02:55:33;;;;;;;0.38;0.30;;;;;;;2.18;76.00;98751.94;5092625;28;20036;-91
2021/03/11 02:58:00;;;;;;;0.30;0.30;;;;;;;2.09;75.55;98746.06;5092292;28;20110;-93
2021/03/11 03:00:28;;;;;;;0.30;0.30;;;;;;;1.91;76.04;98713.22;5092292;28;20044;-94
2021/03/11 03:02:54;;;;;;;0.30;0.30;;;;;;;2.16;76.32;98762.47;5092378;28;20062;-92
2021/03/11 03:05:24;;;;;;;0.30;0.30;;;;;;;2.16;75.44;98758.94;5091651;28;20047;-91
2021/03/11 03:07:51;;;;;;;1.40;1.15;;;;;;;2.13;74.95;98755.03;5092490;28;20111;-89
2021/03/11 03:10:19;;;;;;;0.30;0.30;;;;;;;2.10;75.06;98768.63;5092229;28;20039;-89
2021/03/11 03:12:49;;;;;;;0.40;0.40;;;;;;;2.02;75.15;98754.16;5092116;28;20024;-90
2021/03/11 03:15:15;;;;;;;0.50;0.50;;;;;;;2.10;76.18;98765.91;5092635;28;20029;-90
2021/03/11 03:17:44;;;;;;;0.82;0.82;;;;;;;2.11;76.02;98770.97;5092193;28;20031;-89
2021/03/11 03:20:11;;;;;;;0.40;0.40;;;;;;;2.16;75.09;98784.25;5092627;28;20032;-91
2021/03/11 03:22:38;;;;;;;0.20;0.20;;;;;;;2.04;74.60;98758.09;5092185;28;20130;-90
2021/03/11 03:25:12;;;;;;;0.30;0.30;;;;;;;1.92;74.67;98747.50;5092228;28;20402;-90
2021/03/11 03:27:38;;;;;;;0.28;0.28;;;;;;;2.05;75.39;98767.03;5096834;28;20613;-90
2021/03/11 03:30:12;;;;;;;0.30;0.30;;;;;;;2.12;76.08;98772.53;5096388;28;20123;-89
2021/03/11 03:32:38;;;;;;;0.20;0.20;;;;;;;2.11;76.13;98773.69;5096058;28;20028;-91
2021/03/11 03:35:06;;;;;;;0.30;0.30;;;;;;;2.09;75.13;98792.38;5096474;28;20024;-91
2021/03/11 03:37:31;;;;;;;0.30;0.30;;;;;;;2.09;75.61;98802.50;5095939;28;20067;-89
2021/03/11 03:39:57;;;;;;;0.20;0.20;;;;;;;2.07;75.08;98783.78;5097030;28;20039;-92
2021/03/11 03:42:25;;;;;;;0.40;0.40;;;;;;;1.92;75.37;98779.41;5095911;28;20051;-91
2021/03/11 03:44:52;;;;;;;0.30;0.30;;;;;;;2.04;74.88;98790.00;5095853;28;20479;-89
2021/03/11 03:47:17;;;;;;;0.30;0.30;;;;;;;1.99;75.86;98793.84;5095812;28;20035;-90
2021/03/11 03:49:44;;;;;;;0.88;0.82;;;;;;;2.07;74.79;98802.06;5095710;28;20118;-90
2021/03/11 03:52:11;;;;;;;0.30;0.30;;;;;;;1.99;75.21;98795.78;5095635;28;20036;-91
2021/03/11 03:54:42;;;;;;;1.58;1.48;;;;;;;1.96;75.05;98794.59;5095756;28;20032;-92
2021/03/11 03:57:16;;;;;;;0.88;0.43;;;;;;;1.74;75.38;98781.97;5095726;28;20028;-92
2021/03/11 03:59:43;;;;;;;0.30;0.30;;;;;;;1.63;76.07;98767.44;5096278;28;20032;-90
2021/03/11 04:02:12;;;;;;;0.30;0.30;;;;;;;1.78;73.54;98807.28;5096844;28;20028;-90
2021/03/11 04:04:42;;;;;;;0.60;0.60;;;;;;;1.86;73.96;98825.28;5095350;28;20056;-91
2021/03/11 04:07:10;;;;;;;0.85;0.85;;;;;;;1.88;75.80;98836.56;5095785;28;20024;-94
2021/03/11 04:09:38;;;;;;;0.38;0.38;;;;;;;1.89;74.96;98821.78;5095755;28;20054;-89
2021/03/11 04:12:05;;;;;;;0.30;0.30;;;;;;;1.85;72.48;98822.91;5095536;28;20080;-91
2021/03/11 04:14:31;;;;;;;0.20;0.20;;;;;;;1.54;74.24;98786.03;5095426;28;20040;-89
2021/03/11 04:16:57;;;;;;;0.68;0.68;;;;;;;1.78;75.28;98823.63;5095229;28;20035;-92
2021/03/11 04:19:24;;;;;;;0.50;0.50;;;;;;;1.81;75.78;98827.56;5095237;28;20511;-91
2021/03/11 04:21:51;;;;;;;0.30;0.30;;;;;;;1.79;74.83;98830.66;5095149;28;20040;-92
2021/03/11 04:24:17;;;;;;;0.30;0.30;;;;;;;1.60;75.46;98800.88;5094959;28;20165;-90
2021/03/11 04:26:43;;;;;;;0.20;0.20;;;;;;;1.61;73.72;98797.00;5095185;28;20173;-90
2021/03/11 04:29:09;;;;;;;0.20;0.20;;;;;;;1.74;73.14;98819.31;5095261;28;20051;-91
2021/03/11 04:31:35;;;;;;;0.30;0.30;;;;;;;1.60;73.09;98807.13;5094757;28;20054;-89
2021/03/11 04:34:01;;;;;;;0.30;0.30;;;;;;;1.73;75.48;98832.16;5094921;28;20173;-91
2021/03/11 04:36:28;;;;;;;0.30;0.30;;;;;;;1.57;75.44;98824.19;5094380;28;20403;-91
2021/03/11 04:38:54;;;;;;;0.28;0.28;;;;;;;1.62;75.89;98823.09;5094816;28;20039;-91
2021/03/11 04:41:21;;;;;;;0.30;0.30;;;;;;;1.70;73.71;98840.25;5095336;28;20020;-91
2021/03/11 04:43:47;;;;;;;0.82;0.82;;;;;;;1.55;74.66;98834.69;5094732;28;20062;-93
2021/03/11 04:46:17;;;;;;;0.30;0.30;;;;;;;1.73;75.29;98847.69;5094745;28;20056;-92
2021/03/11 04:48:43;;;;;;;0.30;0.30;;;;;;;1.69;74.07;98853.09;5095805;28;20480;-90
2021/03/11 04:51:12;;;;;;;0.30;0.30;;;;;;;1.68;74.50;98854.28;5094561;28;20028;-91
2021/03/11 04:53:39;;;;;;;0.30;0.30;;;;;;;1.66;73.65;98874.84;5094526;28;20032;-92
2021/03/11 04:56:09;;;;;;;0.30;0.30;;;;;;;1.67;74.25;98876.44;5094873;28;20027;-93
2021/03/11 04:58:35;;;;;;;0.38;0.38;;;;;;;1.64;73.97;98886.13;5095091;28;20034;-93
2021/03/11 05:01:07;;;;;;;0.30;0.30;;;;;;;1.64;73.96;98886.91;5094383;28;20024;-90
2021/03/11 05:03:32;;;;;;;0.40;0.40;;;;;;;1.59;75.15;98889.16;5094047;28;20032;-92
2021/03/11 05:05:58;;;;;;;0.30;0.30;;;;;;;1.68;75.56;98905.22;5094333;28;20184;-90
2021/03/11 05:08:24;;;;;;;0.30;0.30;;;;;;;1.57;74.16;98900.44;5094229;28;20031;-90
2021/03/11 05:10:49;;;;;;;0.30;0.30;;;;;;;1.62;74.79;98913.75;5094159;28;20024;-91
2021/03/11 05:13:15;;;;;;;0.30;0.30;;;;;;;1.62;76.07;98924.63;5094184;28;20031;-90
2021/03/11 05:15:40;;;;;;;0.30;0.30;;;;;;;1.60;74.96;98913.31;5094135;28;20030;-89
2021/03/11 05:18:06;;;;;;;0.40;0.40;;;;;;;1.43;75.37;98886.66;5094250;28;20089;-91
2021/03/11 05:20:31;;;;;;;0.30;0.30;;;;;;;1.61;74.67;98919.56;5094049;28;20482;-92
2021/03/11 05:22:57;;;;;;;0.50;0.50;;;;;;;1.63;74.49;98922.66;5093939;28;20043;-90
2021/03/11 05:25:22;;;;;;;1.08;1.08;;;;;;;1.61;74.74;98923.06;5093782;28;20039;-92
2021/03/11 05:27:48;;;;;;;0.40;0.40;;;;;;;1.60;74.36;98932.38;5094099;28;20026;-91
2021/03/11 05:30:14;;;;;;;0.30;0.30;;;;;;;1.58;73.72;98923.00;5093838;28;20467;-90
2021/03/11 05:32:40;;;;;;;2.97;2.78;;;;;;;1.55;74.47;98932.72;5093490;28;20039;-91
2021/03/11 05:35:07;;;;;;;0.85;0.85;;;;;;;1.63;74.30;98949.91;5093818;28;20027;-92
2021/03/11 05:37:32;;;;;;;4.03;2.90;;;;;;;1.66;74.57;98946.44;5093731;28;20026;-92
2021/03/11 05:39:58;;;;;;;0.95;0.95;;;;;;;1.63;73.95;98945.22;5093490;28;20114;-91
2021/03/11 05:42:24;;;;;;;0.32;0.32;;;;;;;1.59;75.06;98938.97;5093694;28;20024;-93
2021/03/11 05:44:51;;;;;;;0.30;0.30;;;;;;;1.49;74.40;98912.41;5093963;28;20028;-91
2021/03/11 05:47:19;;;;;;;0.30;0.30;;;;;;;1.56;73.13;98934.28;5094005;28;20024;-90
2021/03/11 05:49:45;;;;;;;0.30;0.30;;;;;;;1.68;73.15;98959.69;5092642;28;20032;-91
2021/03/11 05:52:12;;;;;;;0.20;0.20;;;;;;;1.73;74.69;98962.88;5093308;28;20065;-93
2021/03/11 05:54:38;;;;;;;0.40;0.40;;;;;;;1.76;73.73;99000.25;5093595;28;20195;-92
2021/03/11 05:57:06;;;;;;;6.97;0.73;;;;;;;1.67;73.94;98963.56;5093284;28;20028;-90
2021/03/11 05:59:32;;;;;;;1.10;1.10;;;;;;;1.71;74.22;98970.63;5093303;28;20501;-89
2021/03/11 06:02:04;;;;;;;0.77;0.77;;;;;;;1.79;74.44;98977.75;5093458;28;20419;-90
2021/03/11 06:04:31;;;;;;;0.93;0.93;;;;;;;1.85;74.60;98987.16;5092802;28;20060;-90
2021/03/11 06:06:57;;;;;;;5.05;2.15;;;;;;;1.93;73.62;98982.56;5092879;28;20032;-90
2021/03/11 06:09:23;;;;;;;1.88;1.77;;;;;;;2.03;73.12;98981.91;5093076;28;20032;-90
2021/03/11 06:11:49;;;;;;;0.55;0.55;;;;;;;1.99;72.62;98992.75;5093058;28;20027;-91
2021/03/11 06:14:15;;;;;;;1.58;1.48;;;;;;;2.00;72.98;98988.88;5092771;28;20031;-89
2021/03/11 06:17:06;;;;;;;0.40;0.40;;;;;;;1.96;72.73;98981.81;5092143;28;20028;-89
2021/03/11 06:19:33;;;;;;;1.30;1.25;;;;;;;1.93;73.34;98977.13;5091729;28;20067;-89
2021/03/11 06:21:58;;;;;;;0.20;0.20;;;;;;;2.24;73.03;99014.81;5092561;28;20024;-90
2021/03/11 06:24:24;;;;;;;0.30;0.30;;;;;;;2.39;71.99;99021.22;5092418;28;20093;-90
2021/03/11 06:26:50;;;;;;;0.30;0.30;;;;;;;2.39;73.62;99021.22;5092460;28;20030;-86
2021/03/11 06:29:17;;;;;;;0.20;0.20;;;;;;;2.32;73.02;99021.94;5093404;28;20039;-85
2021/03/11 06:31:43;;;;;;;0.30;0.30;;;;;;;2.43;72.68;99038.41;5092195;28;20403;-86
2021/03/11 06:34:20;;;;;;;0.30;0.30;;;;;;;2.35;72.43;99044.94;5092533;28;20020;-85
2021/03/11 06:36:46;;;;;;;0.30;0.30;;;;;;;2.07;72.90;98985.44;5092445;28;20036;-87
2021/03/11 06:39:44;;;;;;;0.43;0.43;;;;;;;2.35;71.87;99045.72;5092470;28;20123;-86
2021/03/11 06:42:10;;;;;;;0.30;0.30;;;;;;;2.29;72.88;99049.94;5063191;28;20507;-84
2021/03/11 06:44:41;;;;;;;1.17;0.85;;;;;;;2.30;73.52;99050.72;5092154;28;20035;-85
2021/03/11 06:47:15;;;;;;;0.40;0.40;;;;;;;2.29;73.18;99036.28;5092219;28;20016;-85
2021/03/11 06:50:03;;;;;;;0.70;0.70;;;;;;;2.17;72.44;99028.38;5092133;28;20024;-84
2021/03/11 06:52:29;;;;;;;0.50;0.50;;;;;;;2.41;71.59;99055.13;5092375;28;20024;-85
2021/03/11 06:55:07;;;;;;;2.05;1.95;;;;;;;2.51;72.13;99080.97;5092194;28;20115;-86
2021/03/11 06:57:40;;;;;;;0.65;0.65;;;;;;;2.32;72.29;99049.19;5092355;28;20062;-90
2021/03/11 07:00:18;;;;;;;1.15;1.15;;;;;;;2.57;71.45;99097.75;5091767;28;20036;-89
2021/03/11 07:02:54;;;;;;;0.20;0.20;;;;;;;2.54;71.93;99058.38;5091880;28;20093;-89
2021/03/11 07:05:21;;;;;;;0.20;0.20;;;;;;;2.83;70.91;99092.19;5091820;28;20044;-88
2021/03/11 07:07:48;;;;;;;0.22;0.22;;;;;;;2.33;70.70;99039.88;5091881;28;20403;-88
2021/03/11 07:10:24;;;;;;;0.40;0.40;;;;;;;2.49;70.61;99066.09;5092037;28;20590;-89
2021/03/11 07:12:51;;;;;;;0.35;0.35;;;;;;;2.74;70.97;99091.72;5091864;28;20066;-89
2021/03/11 07:15:17;;;;;;;0.20;0.20;;;;;;;2.88;71.02;99108.22;5091682;28;20036;-88
2021/03/11 07:17:43;;;;;;;0.82;0.82;;;;;;;2.99;71.62;99111.84;5091246;28;20028;-88
2021/03/11 07:20:19;;;;;;;0.30;0.30;;;;;;;3.12;71.17;99115.09;5091615;28;20043;-89
2021/03/11 07:23:01;;;;;;;0.25;0.25;;;;;;;3.16;69.98;99124.06;5092224;28;20027;-92
2021/03/11 07:25:43;;;;;;;0.20;0.20;;;;;;;3.42;70.73;99115.72;5091863;28;20108;-89
2021/03/11 07:28:26;;;;;;;0.30;0.30;;;;;;;3.39;68.89;99115.69;5092971;28;20031;-90
2021/03/11 07:30:57;;;;;;;0.30;0.30;;;;;;;3.34;69.00;99124.22;5092355;28;20031;-93
2021/03/11 07:33:27;;;;;;;0.38;0.38;;;;;;;3.33;68.45;99119.94;5092848;28;20035;-90
2021/03/11 07:35:57;;;;;;;0.30;0.30;;;;;;;3.40;69.50;99130.91;5091789;28;20024;-89
2021/03/11 07:38:25;;;;;;;0.52;0.52;;;;;;;3.58;69.54;99129.88;5092065;28;20027;-89
2021/03/11 07:40:53;;;;;;;0.52;0.52;;;;;;;3.42;69.30;99118.47;5091672;28;20032;-91
2021/03/11 07:43:22;;;;;;;1.30;1.30;;;;;;;3.20;68.58;99106.56;5091925;28;20032;-90
2021/03/11 07:45:48;;;;;;;0.75;0.75;;;;;;;3.31;68.18;99152.31;5091496;28;20031;-95
2021/03/11 07:48:14;;;;;;;0.30;0.30;;;;;;;3.25;68.50;99154.59;5092633;28;20602;-94
2021/03/11 07:50:44;;;;;;;0.30;0.30;;;;;;;3.19;68.27;99159.63;5092395;28;20059;-94
2021/03/11 07:53:09;;;;;;;0.85;0.85;;;;;;;3.11;68.31;99165.38;5092763;28;20028;-94
2021/03/11 07:55:36;;;;;;;0.68;0.68;;;;;;;3.09;68.81;99163.00;5092122;28;20028;-92
2021/03/11 07:58:04;;;;;;;0.40;0.40;;;;;;;3.25;68.37;99166.28;5091436;28;20055;-94
2021/03/11 08:00:30;;;;;;;0.30;0.30;;;;;;;3.52;67.33;99180.56;5090961;28;20054;-93
2021/03/11 08:03:00;;;;;;;0.57;0.57;;;;;;;3.47;67.46;99139.94;5091987;28;20487;-92
2021/03/11 08:05:29;;;;;;;1.00;0.45;;;;;;;3.85;65.52;99174.22;5093083;28;20051;-95
2021/03/11 08:08:10;;;;;;;0.93;0.93;;;;;;;3.37;65.66;99128.94;5092499;28;20074;-95
2021/03/11 08:10:44;;;;;;;0.47;0.47;;;;;;;4.01;66.15;99147.34;5091926;28;20032;-95
2021/03/11 08:13:37;;;;;;;0.93;0.85;;;;;;;4.56;63.25;99163.66;5094901;28;20106;-96
2021/03/11 08:16:08;;;;;;;2.05;1.95;;;;;;;4.76;63.12;99175.84;5085107;28;20044;-95
2021/03/11 08:18:34;;;;;;;0.30;0.30;;;;;;;4.93;62.26;99188.03;5095692;28;20028;-94
2021/03/11 08:21:04;;;;;;;0.40;0.40;;;;;;;5.19;62.44;99189.66;5095457;28;20031;-95
2021/03/11 08:23:34;;;;;;;1.75;1.65;;;;;;;5.29;63.12;99186.94;5095468;28;20032;-94
2021/03/11 08:26:01;;;;;;;0.20;0.20;;;;;;;5.05;62.78;99154.03;5096954;28;20024;-92
2021/03/11 08:28:29;;;;;;;0.75;0.75;;;;;;;4.88;62.80;99175.47;5095448;28;20567;-94
2021/03/11 08:31:02;;;;;;;0.30;0.30;;;;;;;4.69;63.23;99153.94;5095718;28;20063;-94
2021/03/11 08:33:27;;;;;;;1.08;0.80;;;;;;;5.14;62.38;99195.50;5095802;28;20464;-93
2021/03/11 08:35:55;;;;;;;0.30;0.30;;;;;;;5.06;62.59;99183.78;5095283;28;20043;-94
2021/03/11 08:38:24;;;;;;;0.20;0.20;;;;;;;5.54;61.68;99195.19;5095485;28;20047;-92
2021/03/11 08:40:57;;;;;;;0.20;0.20;;;;;;;5.18;61.13;99204.53;5095098;28;20495;-94
2021/03/11 08:43:38;;;;;;;0.40;0.40;;;;;;;5.21;59.95;99198.25;5094877;28;20020;-96
2021/03/11 08:46:24;;;;;;;1.13;1.05;;;;;;;5.33;60.95;99200.63;5094943;28;20024;-92
2021/03/11 08:48:58;;;;;;;0.20;0.20;;;;;;;5.64;62.35;99202.63;5095583;28;20063;-94
2021/03/11 08:51:23;;;;;;;0.30;0.30;;;;;;;6.21;59.86;99201.84;5095214;28;20032;-93
2021/03/11 08:53:55;;;;;;;1.40;1.30;;;;;;;5.90;60.55;99168.59;5095782;28;20025;-96
2021/03/11 09:23:42;;;;;;;1.33;1.33;;;;;;;5.97;57.41;99159.53;5112120;27;20396;-94
2021/03/11 09:26:30;;;;;;;0.20;0.20;;;;;;;6.63;56.57;99233.91;5110234;28;20556;-91
2021/03/11 09:28:56;;;;;;;0.40;0.40;;;;;;;6.86;59.62;99220.47;5110218;28;20051;-94
2021/03/11 09:31:28;;;;;;;1.73;0.43;;;;;;;6.85;56.62;99236.16;5110645;28;20040;-93
2021/03/11 09:34:00;;;;;;;0.73;0.73;;;;;;;6.32;57.20;99206.13;5110078;28;20028;-95
2021/03/11 09:36:26;;;;;;;1.05;1.05;;;;;;;6.18;58.58;99208.13;5110134;28;20028;-90
2021/03/11 09:38:58;;;;;;;0.35;0.35;;;;;;;6.44;57.24;99244.16;5109888;28;20026;-88
2021/03/11 09:41:28;;;;;;;0.20;0.20;;;;;;;5.91;57.16;99237.91;5109925;28;20028;-89
2021/03/11 09:43:54;;;;;;;1.00;1.00;;;;;;;5.88;58.14;99250.44;5109748;28;20028;-92
2021/03/11 09:46:21;;;;;;;0.22;0.22;;;;;;;6.20;56.95;99263.38;5109877;28;20415;-95
2021/03/11 09:48:50;;;;;;;0.30;0.30;;;;;;;6.31;56.40;99264.94;5110396;28;20134;-93
2021/03/11 09:51:22;;;;;;;0.20;0.20;;;;;;;6.47;55.86;99251.56;5109685;28;20032;-92
2021/03/11 09:53:50;;;;;;;0.40;0.40;;;;;;;6.46;55.73;99246.47;5110325;28;20051;-94
2021/03/11 09:56:28;;;;;;;0.20;0.20;;;;;;;6.41;57.76;99214.72;5109661;28;20027;-94
2021/03/11 09:58:55;;;;;;;0.20;0.20;;;;;;;6.79;56.54;99248.75;5110134;28;20027;-92
2021/03/11 10:01:22;;;;;;;0.20;0.20;;;;;;;6.83;58.42;99248.72;5109476;28;20032;-87
2021/03/11 10:03:48;;;;;;;0.30;0.30;;;;;;;7.06;57.12;99265.50;5109435;28;20119;-86
2021/03/11 10:06:15;;;;;;;0.80;0.80;;;;;;;6.91;56.30;99273.03;5108713;28;20063;-88
2021/03/11 10:08:42;;;;;;;0.20;0.20;;;;;;;6.83;56.53;99276.19;5108441;28;20023;-88
2021/03/11 10:11:19;;;;;;;0.20;0.20;;;;;;;7.02;55.45;99272.19;5107097;28;20038;-87
2021/03/11 10:13:49;;;;;;;0.20;0.20;;;;;;;6.67;56.08;99248.41;5107291;28;20105;-89
2021/03/11 10:16:18;;;;;;;0.20;0.20;;;;;;;7.21;55.75;99272.53;5107069;28;20266;-87
2021/03/11 10:19:00;;;;;;;0.20;0.20;;;;;;;7.35;55.74;99279.91;5106938;28;20055;-87
2021/03/11 10:21:26;;;;;;;0.20;0.20;;;;;;;7.31;54.73;99237.91;5107981;28;20147;-90
2021/03/11 10:23:52;;;;;;;0.43;0.43;;;;;;;7.41;54.92;99250.81;5108946;28;20035;-89
2021/03/11 10:26:22;;;;;;;0.40;0.40;;;;;;;7.33;53.56;99254.78;5109024;28;20035;-90
2021/03/11 10:28:50;;;;;;;0.20;0.20;;;;;;;7.34;54.46;99292.88;5108838;28;20118;-92
2021/03/11 10:31:15;;;;;;;0.20;0.20;;;;;;;7.12;53.56;99271.38;5109674;28;20028;-90
2021/03/11 10:33:42;;;;;;;0.20;0.20;;;;;;;6.90;55.98;99265.19;5101721;28;20043;-89
2021/03/11 10:36:16;;;;;;;0.20;0.20;;;;;;;7.15;56.48;99304.34;5095412;28;20039;-89
2021/03/11 10:38:43;;;;;;;0.20;0.20;;;;;;;7.37;56.11;99316.00;5095339;28;20028;-89
2021/03/11 10:41:17;;;;;;;0.68;0.57;;;;;;;6.98;55.00;99293.41;5095139;28;20028;-90
2021/03/11 10:43:44;;;;;;;0.30;0.30;;;;;;;7.04;57.00;99300.06;5096228;28;20036;-89
2021/03/11 10:46:28;;;;;;;1.75;1.65;;;;;;;7.02;56.30;99273.00;5095690;28;20030;-88
2021/03/11 10:48:53;;;;;;;1.42;1.35;;;;;;;6.92;55.42;99273.81;5095049;28;20040;-89
2021/03/11 10:51:20;;;;;;;1.38;1.08;;;;;;;6.71;55.75;99299.38;5095677;28;20032;-90
2021/03/11 10:53:46;;;;;;;0.30;0.30;;;;;;;6.75;56.46;99275.41;5095060;28;20173;-89
2021/03/11 10:56:12;;;;;;;0.40;0.40;;;;;;;7.11;55.72;99302.78;5095381;28;20027;-91
2021/03/11 10:58:39;;;;;;;0.30;0.30;;;;;;;7.05;55.89;99274.16;5095526;28;20028;-89
2021/03/11 11:01:25;;;;;;;0.20;0.20;;;;;;;6.86;56.50;99261.69;5094771;28;20119;-90
2021/03/11 11:03:53;;;;;;;0.30;0.30;;;;;;;7.07;55.70;99297.28;5096269;28;20020;-88
2021/03/11 11:06:20;;;;;;;0.20;0.20;;;;;;;7.00;57.56;99258.06;5094629;28;20051;-88
2021/03/11 11:08:46;;;;;;;0.20;0.20;;;;;;;7.48;56.01;99293.97;5095716;28;20039;-87
2021/03/11 11:11:13;;;;;;;0.50;0.50;;;;;;;7.23;55.09;99307.84;5095322;28;20032;-89
2021/03/11 11:13:39;;;;;;;0.30;0.30;;;;;;;7.11;55.45;99305.53;5094344;28;20161;-91
2021/03/11 11:16:05;;;;;;;0.35;0.35;;;;;;;7.07;54.99;99258.84;5094498;28;20065;-87
2021/03/11 11:18:31;;;;;;;0.32;0.32;;;;;;;7.28;55.33;99301.94;5094503;28;20085;-87
2021/03/11 11:20:57;;;;;;;0.35;0.35;;;;;;;7.02;55.78;99281.22;5094578;28;20032;-89
2021/03/11 11:23:25;;;;;;;0.20;0.20;;;;;;;7.36;56.01;99279.50;5091924;28;20465;-87
2021/03/11 11:25:51;;;;;;;0.50;0.50;;;;;;;7.48;54.54;99294.75;5093915;28;20028;-89
2021/03/11 11:28:16;;;;;;;0.20;0.20;;;;;;;7.23;55.14;99292.13;5093867;28;20380;-87
2021/03/11 11:30:42;;;;;;;0.57;0.57;;;;;;;7.08;55.37;99309.84;5093518;28;20019;-89
2021/03/11 11:33:07;;;;;;;0.20;0.20;;;;;;;7.15;54.37;99318.09;5093780;28;20028;-90
2021/03/11 11:35:33;;;;;;;0.30;0.30;;;;;;;7.21;55.61;99307.47;5093554;28;20099;-87
2021/03/11 11:37:59;;;;;;;0.30;0.30;;;;;;;7.21;55.65;99311.00;5093784;28;20032;-87
2021/03/11 11:40:25;;;;;;;0.38;0.38;;;;;;;7.03;56.10;99271.81;5094172;28;20038;-89
2021/03/11 11:42:50;;;;;;;0.30;0.30;;;;;;;7.34;55.26;99305.84;5094008;28;20549;-88
2021/03/11 11:45:16;;;;;;;0.30;0.30;;;;;;;6.74;55.75;99268.38;5092735;28;20032;-88
2021/03/11 11:47:42;;;;;;;0.50;0.50;;;;;;;7.04;56.04;99281.63;5093364;28;20032;-89
2021/03/11 11:50:09;;;;;;;0.20;0.20;;;;;;;7.14;56.24;99308.28;5094868;28;20039;-86
2021/03/11 11:52:36;;;;;;;0.52;0.52;;;;;;;6.97;55.27;99303.63;5093289;28;20032;-87
2021/03/11 11:55:03;;;;;;;0.20;0.20;;;;;;;6.78;55.93;99262.88;5093573;28;20028;-88
2021/03/11 11:57:28;;;;;;;0.10;0.10;;;;;;;6.72;56.78;99268.00;5093469;28;20020;-87
2021/03/11 11:59:54;;;;;;;0.20;0.20;;;;;;;6.58;56.07;99292.72;5093298;28;20028;-86
2021/03/11 12:02:19;;;;;;;0.20;0.20;;;;;;;6.44;55.96;99306.47;5093331;28;20020;-88
2021/03/11 12:04:45;;;;;;;0.40;0.40;;;;;;;6.35;57.25;99317.06;5093426;28;20130;-88
2021/03/11 12:07:11;;;;;;;0.82;0.82;;;;;;;6.35;56.89;99312.34;5092972;28;20025;-88
2021/03/11 12:09:37;;;;;;;0.20;0.20;;;;;;;6.29;56.97;99316.69;5092912;28;20123;-87
2021/03/11 12:12:03;;;;;;;0.20;0.20;;;;;;;6.23;57.70;99290.81;5101867;28;20047;-88
2021/03/11 12:14:29;;;;;;;0.38;0.38;;;;;;;6.60;57.64;99273.13;5094400;28;20119;-88